createdAt,value
2017-07-02T00:19:39.866Z,67.93
2017-07-02T00:44:40.668Z,57.67
2017-07-02T01:04:41.041Z,57.20
2017-07-02T01:24:41.411Z,17.91
2017-07-02T01:44:41.939Z,38.77
2017-07-02T02:04:42.474Z,90.83
2017-07-02T02:24:42.920Z,98.39
2017-07-02T02:44:43.345Z,25.09
2017-07-02T03:03:59.333Z,100.00
2017-07-02T03:23:59.807Z,100.00
2017-07-02T03:44:00.236Z,99.02
2017-07-02T04:04:00.756Z,100.00
2017-07-02T04:24:01.191Z,100.00
2017-07-02T04:44:01.664Z,100.00
2017-07-02T05:04:02.216Z,100.00
2017-07-02T05:24:02.817Z,100.00
2017-07-02T05:44:03.280Z,100.00
2017-07-02T06:04:03.888Z,99.67
2017-07-02T06:24:04.309Z,100.00
2017-07-02T06:44:04.789Z,100.00
2017-07-02T07:04:05.276Z,100.00
2017-07-02T07:24:05.794Z,100.00
2017-07-02T07:44:06.297Z,100.00
2017-07-02T08:04:06.749Z,100.00
2017-07-02T08:24:07.391Z,100.00
2017-07-02T08:49:07.990Z,100.00
2017-07-02T09:09:08.529Z,100.00
2017-07-02T09:29:09.144Z,100.00
2017-07-02T09:49:09.639Z,100.00
2017-07-02T10:09:10.204Z,100.00
2017-07-02T10:29:10.661Z,100.00
2017-07-02T10:49:11.202Z,100.00
2017-07-02T11:09:11.702Z,100.00
2017-07-02T11:29:12.384Z,100.00
2017-07-02T11:49:12.592Z,100.00
2017-07-02T12:09:13.080Z,100.00
2017-07-02T12:29:13.583Z,91.27
2017-07-02T12:49:14.102Z,98.73
2017-07-02T13:09:14.572Z,78.42
2017-07-02T13:29:15.039Z,77.17
2017-07-02T13:49:15.533Z,38.85
2017-07-02T14:09:16.014Z,42.78
2017-07-02T14:29:16.446Z,31.66
2017-07-02T14:49:17.001Z,32.76
2017-07-02T15:09:17.499Z,31.45
2017-07-02T15:29:17.820Z,24.60
2017-07-02T15:49:18.431Z,13.00
2017-07-02T16:09:18.947Z,11.93
2017-07-02T16:29:19.371Z,2.35
2017-07-02T16:54:19.972Z,1.19
2017-07-02T17:14:20.495Z,0.00
2017-07-02T17:34:20.898Z,0.00
2017-07-02T17:54:21.275Z,0.21
2017-07-02T18:14:21.819Z,0.00
2017-07-02T18:34:22.302Z,0.00
2017-07-02T18:54:22.787Z,0.00
2017-07-02T19:14:23.406Z,0.00
2017-07-02T19:34:23.830Z,0.00
2017-07-02T19:54:24.465Z,65.29
2017-07-02T20:14:25.023Z,96.56
2017-07-02T20:34:26.462Z,71.29
2017-07-02T20:55:10.458Z,98.79
2017-07-02T21:15:10.795Z,89.28
2017-07-02T21:35:11.314Z,21.90
2017-07-02T21:55:11.916Z,21.91
2017-07-02T22:15:12.154Z,53.60
2017-07-02T22:35:12.579Z,87.23
2017-07-02T22:55:12.995Z,89.07
2017-07-02T23:15:13.450Z,96.37
2017-07-02T23:40:13.985Z,91.30
